Time;durP1;ratioP1;P1;durP2;ratioP2;P2;SDS_P1;SDS_P2;PMS_P1;PMS_P2;Temp;Humidity;BMP_temperature;BMP_pressure;BME280_temperature;BME280_humidity;BME280_pressure;Samples;Min_cycle;Max_cycle;Signal;HPM_P1;HPM_P2
2023/05/15 00:04:54;;;;;;;8.80;5.30;;;;;;;14.18;69.05;100121.45;218157;1285;97928;-88
2023/05/15 00:09:55;;;;;;;9.30;4.90;;;;;;;14.16;69.33;100120.48;217521;1283;137894;-86
2023/05/15 00:14:55;;;;;;;12.20;5.00;;;;;;;14.15;69.25;100109.45;217963;1282;138660;-89
2023/05/15 00:19:57;;;;;;;9.60;4.90;;;;;;;14.13;69.26;100102.73;217530;1282;138738;-93
2023/05/15 00:24:58;;;;;;;10.90;5.60;;;;;;;14.12;69.51;100093.49;218035;1282;138805;-89
2023/05/15 00:29:58;;;;;;;10.30;5.50;;;;;;;14.09;70.07;100085.94;217788;1282;138772;-89
2023/05/15 00:34:59;;;;;;;10.50;5.80;;;;;;;14.06;69.97;100079.46;218385;1282;97950;-91
2023/05/15 00:39:59;;;;;;;10.60;5.80;;;;;;;14.04;70.17;100071.89;217459;1282;138753;-90
2023/05/15 00:45:01;;;;;;;10.10;5.70;;;;;;;14.02;70.41;100069.16;217945;1281;138302;-91
2023/05/15 00:50:02;;;;;;;10.70;5.00;;;;;;;13.99;70.62;100057.80;217672;1281;138477;-90
2023/05/15 00:55:06;;;;;;;14.00;5.00;;;;;;;13.96;70.67;100053.24;218021;1281;138354;-90
2023/05/15 01:00:09;;;;;;;7.70;5.00;;;;;;;13.94;71.30;100042.34;217716;1282;138922;-88
2023/05/15 01:05:09;;;;;;;9.10;4.30;;;;;;;13.90;72.30;100047.12;218041;1282;97945;-90
2023/05/15 01:10:10;;;;;;;11.20;5.30;;;;;;;13.85;72.97;100052.94;217459;1282;139523;-92
2023/05/15 01:15:11;;;;;;;9.60;5.00;;;;;;;13.80;76.00;100047.13;218278;1282;138888;-92
2023/05/15 01:20:16;;;;;;;8.80;5.00;;;;;;;13.71;78.56;100046.88;217698;1282;139468;-94
2023/05/15 01:25:41;;;;;;;8.50;5.20;;;;;;;13.60;79.48;100064.66;218625;1282;138724;-93
2023/05/15 01:30:44;;;;;;;10.00;5.80;;;;;;;13.53;81.11;100077.66;217712;1282;138742;-92
2023/05/15 01:36:17;;;;;;;9.90;5.40;;;;;;;13.50;81.08;100092.46;218567;1282;98381;-95
2023/05/15 01:41:18;;;;;;;8.50;5.30;;;;;;;13.47;80.97;100085.13;217487;1282;138778;-93
2023/05/15 01:46:22;;;;;;;10.80;5.90;;;;;;;13.43;80.96;100062.56;218215;1282;138638;-93
2023/05/15 01:51:24;;;;;;;11.90;5.80;;;;;;;13.42;81.79;100051.81;217677;1282;139585;-92
2023/05/15 01:56:26;;;;;;;9.30;5.40;;;;;;;13.39;82.38;100040.48;218274;1285;140486;-91
2023/05/15 02:01:26;;;;;;;11.20;5.60;;;;;;;13.34;82.73;100034.82;217691;1283;138833;-92
2023/05/15 02:06:28;;;;;;;9.90;5.60;;;;;;;13.30;82.59;100027.90;217989;1282;139106;-91
2023/05/15 02:11:29;;;;;;;10.40;5.30;;;;;;;13.26;83.67;100022.63;217706;1285;138788;-92
2023/05/15 02:16:29;;;;;;;11.50;6.10;;;;;;;13.22;84.40;100012.70;218201;1282;138758;-93
2023/05/15 02:21:29;;;;;;;8.50;5.40;;;;;;;13.17;85.50;100009.19;217487;1282;139512;-92
2023/05/15 02:26:46;;;;;;;10.50;6.50;;;;;;;13.13;85.28;99999.90;218241;1285;139426;-91
2023/05/15 02:31:59;;;;;;;10.00;6.30;;;;;;;13.08;85.60;99990.53;217704;1285;139302;-93
2023/05/15 02:37:05;;;;;;;12.90;6.60;;;;;;;13.04;85.09;99981.33;218131;1285;140053;-90
2023/05/15 02:42:06;;;;;;;13.00;6.70;;;;;;;13.02;85.13;99965.40;217430;1285;339753;-90
2023/05/15 02:47:07;;;;;;;10.30;6.50;;;;;;;13.00;84.55;99957.83;218180;1282;98057;-92
2023/05/15 02:52:07;;;;;;;10.80;7.00;;;;;;;12.97;84.03;99941.83;217575;1282;139589;-94
2023/05/15 02:57:08;;;;;;;11.10;6.80;;;;;;;12.95;84.54;99932.13;218128;1282;139807;-93
2023/05/15 03:02:08;;;;;;;9.20;5.60;;;;;;;12.91;84.46;99924.55;217738;1282;138765;-95
2023/05/15 03:07:08;;;;;;;11.40;5.90;;;;;;;12.88;84.38;99911.79;218145;1282;138729;-91
2023/05/15 03:12:09;;;;;;;10.20;6.10;;;;;;;12.86;84.62;99902.56;217489;1282;138824;-89
2023/05/15 03:17:10;;;;;;;11.00;5.80;;;;;;;12.84;84.15;99894.30;218198;1283;98063;-91
2023/05/15 03:22:10;;;;;;;11.30;6.50;;;;;;;12.82;84.12;99889.97;217694;1287;138796;-91
2023/05/15 03:27:10;;;;;;;14.70;8.00;;;;;;;12.81;84.67;99883.75;218173;1282;139560;-93
2023/05/15 03:32:11;;;;;;;10.30;6.60;;;;;;;12.78;86.04;99890.46;217366;1282;139275;-90
2023/05/15 03:37:11;;;;;;;10.80;6.10;;;;;;;12.77;86.14;99872.50;218099;1285;139266;-89
2023/05/15 03:42:11;;;;;;;12.70;7.00;;;;;;;12.75;86.06;99866.42;217564;1282;139283;-89
2023/05/15 03:47:12;;;;;;;10.00;5.60;;;;;;;12.75;86.32;99863.19;218243;1285;97934;-89
2023/05/15 03:52:12;;;;;;;11.90;6.40;;;;;;;12.76;85.16;99858.86;217618;1283;138980;-90
2023/05/15 03:57:13;;;;;;;10.00;6.50;;;;;;;12.77;85.98;99854.98;218142;1282;140026;-89
2023/05/15 04:02:13;;;;;;;10.70;6.80;;;;;;;12.77;86.86;99849.13;217633;1282;139340;-93
2023/05/15 04:07:13;;;;;;;13.10;8.40;;;;;;;12.77;87.75;99850.09;218286;1283;138740;-89
2023/05/15 04:12:14;;;;;;;16.30;7.90;;;;;;;12.74;87.66;99863.20;217664;1285;138862;-88
2023/05/15 04:17:14;;;;;;;16.00;8.50;;;;;;;12.72;88.32;99871.02;218210;1282;97832;-92
2023/05/15 04:22:14;;;;;;;14.70;8.70;;;;;;;12.71;89.37;99893.59;217544;1283;139377;-91
2023/05/15 04:27:15;;;;;;;13.60;9.00;;;;;;;12.70;90.19;99887.52;218199;1283;139292;-87
2023/05/15 04:32:15;;;;;;;16.00;9.80;;;;;;;12.67;91.69;99884.39;217734;1281;139373;-91
2023/05/15 04:37:15;;;;;;;15.20;8.00;;;;;;;12.66;92.61;99873.91;218195;1285;138696;-93
2023/05/15 04:42:16;;;;;;;16.20;8.50;;;;;;;12.67;93.74;99867.27;217660;1282;139821;-89
2023/05/15 04:47:16;;;;;;;15.50;9.80;;;;;;;12.67;94.16;99862.61;218007;1282;97986;-86
2023/05/15 04:52:17;;;;;;;15.00;10.10;;;;;;;12.68;95.17;99858.75;217619;1281;140129;-86
2023/05/15 04:57:17;;;;;;;16.50;10.70;;;;;;;12.67;95.61;99851.58;218146;1283;138743;-86
2023/05/15 05:02:22;;;;;;;14.30;9.80;;;;;;;12.67;96.14;99849.92;217650;1283;139608;-86
2023/05/15 05:07:22;;;;;;;15.80;10.70;;;;;;;12.70;95.62;99845.09;218206;1285;138741;-86
2023/05/15 05:12:23;;;;;;;15.20;10.40;;;;;;;12.72;96.30;99838.45;217410;1283;139147;-87
2023/05/15 05:17:23;;;;;;;17.90;10.60;;;;;;;12.74;95.80;99833.85;218167;1282;98524;-86
2023/05/15 05:22:24;;;;;;;14.50;10.50;;;;;;;12.78;96.38;99831.39;217567;1282;138785;-87
2023/05/15 05:27:25;;;;;;;16.30;10.00;;;;;;;12.80;96.02;99824.36;218121;1283;138758;-87
2023/05/15 05:32:25;;;;;;;14.40;10.40;;;;;;;12.82;96.27;99812.18;217695;1282;139365;-90
2023/05/15 05:37:25;;;;;;;17.60;11.40;;;;;;;12.83;97.02;99809.17;218105;1283;139153;-88
2023/05/15 05:42:26;;;;;;;18.00;10.80;;;;;;;12.85;97.09;99800.87;217410;1283;139298;-88
2023/05/15 05:47:27;;;;;;;19.50;12.30;;;;;;;12.88;97.03;99793.66;218098;1282;98504;-88
2023/05/15 05:52:28;;;;;;;17.30;11.70;;;;;;;12.91;97.51;99786.15;217652;1282;139518;-89
2023/05/15 05:57:29;;;;;;;19.60;12.00;;;;;;;12.95;98.16;99783.52;217992;1283;139351;-87
2023/05/15 06:02:30;;;;;;;17.40;13.10;;;;;;;12.97;98.66;99778.63;217583;1285;139015;-87
2023/05/15 06:07:31;;;;;;;15.50;11.90;;;;;;;13.02;99.32;99773.86;218250;1283;139445;-89
2023/05/15 06:12:31;;;;;;;20.40;13.00;;;;;;;13.07;99.56;99769.05;217680;1283;139363;-88
2023/05/15 06:17:32;;;;;;;19.50;12.70;;;;;;;13.13;99.58;99763.64;218170;1283;98011;-89
2023/05/15 06:22:32;;;;;;;19.00;14.00;;;;;;;13.19;99.61;99750.94;217633;1282;138531;-87
2023/05/15 06:27:33;;;;;;;20.50;14.10;;;;;;;13.27;99.50;99741.84;218232;1283;138791;-89
2023/05/15 06:32:34;;;;;;;19.70;14.30;;;;;;;13.33;99.76;99732.15;217618;1283;139991;-87
2023/05/15 06:37:35;;;;;;;19.30;14.90;;;;;;;13.44;99.82;99727.21;218131;1283;139154;-87
2023/05/15 06:42:36;;;;;;;22.30;15.60;;;;;;;13.57;99.95;99721.54;217636;1282;139030;-89
2023/05/15 06:47:36;;;;;;;20.30;14.70;;;;;;;13.71;99.87;99720.48;218338;1282;97881;-87
2023/05/15 06:52:37;;;;;;;20.60;15.50;;;;;;;13.85;99.89;99720.38;217748;1285;139888;-88
2023/05/15 06:57:37;;;;;;;21.40;14.90;;;;;;;13.92;100.00;99720.84;218117;1285;138818;-90
2023/05/15 07:02:37;;;;;;;19.20;14.60;;;;;;;13.97;99.91;99718.08;217565;1285;139551;-92
2023/05/15 07:07:38;;;;;;;22.70;15.10;;;;;;;14.04;99.81;99721.61;218124;1283;139001;-90
2023/05/15 07:12:38;;;;;;;17.40;12.30;;;;;;;14.05;99.84;99707.52;217426;1282;139368;-90
2023/05/15 07:17:39;;;;;;;19.00;12.80;;;;;;;14.07;99.86;99701.41;218312;1282;97918;-90
2023/05/15 07:22:39;;;;;;;20.40;13.40;;;;;;;14.13;99.88;99697.60;217616;1283;140163;-89
2023/05/15 07:27:40;;;;;;;23.20;15.00;;;;;;;14.17;99.90;99688.30;218175;1285;139535;-90
2023/05/15 07:32:40;;;;;;;20.00;14.40;;;;;;;14.15;100.00;99684.21;217549;1283;139772;-90
2023/05/15 07:37:40;;;;;;;20.50;14.80;;;;;;;14.21;99.99;99685.81;218405;1283;140132;-90
2023/05/15 07:42:43;;;;;;;20.70;15.50;;;;;;;14.28;100.00;99680.25;217371;1284;139370;-89
2023/05/15 07:47:47;;;;;;;21.50;14.30;;;;;;;14.33;100.00;99669.88;218152;1285;104066;-90
2023/05/15 07:52:48;;;;;;;18.10;14.50;;;;;;;14.36;100.00;99668.89;217614;1283;139609;-88
2023/05/15 07:57:48;;;;;;;19.50;13.20;;;;;;;14.41;100.00;99665.32;217974;1285;139119;-90
2023/05/15 08:02:49;;;;;;;21.40;15.70;;;;;;;14.41;100.00;99660.89;217628;1285;140181;-88
2023/05/15 08:07:49;;;;;;;17.20;12.40;;;;;;;14.40;100.00;99657.44;217931;1283;139182;-89
2023/05/15 08:12:50;;;;;;;25.70;13.20;;;;;;;14.37;100.00;99654.02;217531;1285;139377;-91
2023/05/15 08:17:50;;;;;;;18.50;13.70;;;;;;;14.36;100.00;99652.04;217892;1285;98315;-89
2023/05/15 08:22:50;;;;;;;20.40;14.50;;;;;;;14.36;100.00;99650.30;217380;1286;139252;-89
2023/05/15 08:27:51;;;;;;;19.30;14.50;;;;;;;14.31;100.00;99639.70;217977;1285;139084;-86
2023/05/15 08:32:51;;;;;;;18.00;12.60;;;;;;;14.26;100.00;99630.21;217337;1283;139543;-90
2023/05/15 08:37:52;;;;;;;19.90;13.70;;;;;;;14.31;100.00;99632.52;217888;1283;138301;-86
2023/05/15 08:42:54;;;;;;;18.80;13.60;;;;;;;14.36;100.00;99622.15;217439;1283;139678;-87
2023/05/15 08:47:57;;;;;;;21.10;13.90;;;;;;;14.38;100.00;99619.11;217958;1283;139278;-88
2023/05/15 08:53:00;;;;;;;17.40;12.80;;;;;;;14.36;100.00;99611.63;217445;1285;138598;-87
2023/05/15 08:58:01;;;;;;;18.30;12.50;;;;;;;14.33;100.00;99606.22;217968;1283;138918;-88
2023/05/15 09:03:01;;;;;;;22.00;12.80;;;;;;;14.23;100.00;99602.90;217353;1283;139380;-87
2023/05/15 09:08:05;;;;;;;17.20;12.80;;;;;;;14.17;100.00;99595.48;218022;1283;139098;-89
2023/05/15 09:13:10;;;;;;;16.40;12.60;;;;;;;14.25;100.00;99593.95;217247;1285;139055;-89
2023/05/15 09:18:11;;;;;;;19.30;12.90;;;;;;;14.24;100.00;99586.38;217849;1285;139792;-88
2023/05/15 09:23:23;;;;;;;20.10;13.20;;;;;;;14.30;100.00;99577.65;217505;1282;139014;-90
2023/05/15 09:28:29;;;;;;;18.40;12.30;;;;;;;14.42;100.00;99569.05;218174;1283;138972;-87
2023/05/15 09:33:31;;;;;;;15.60;11.80;;;;;;;14.52;100.00;99566.25;217438;1285;139326;-88
2023/05/15 09:38:34;;;;;;;17.70;13.30;;;;;;;14.65;100.00;99562.60;218161;1283;139519;-85
2023/05/15 09:43:39;;;;;;;19.80;14.20;;;;;;;14.72;100.00;99553.52;217670;1283;139295;-88
2023/05/15 09:48:39;;;;;;;19.20;13.70;;;;;;;14.79;100.00;99549.73;217949;1285;139079;-87
2023/05/15 09:53:40;;;;;;;17.20;12.70;;;;;;;14.87;100.00;99554.16;217833;1282;138653;-87
2023/05/15 09:58:54;;;;;;;20.10;12.90;;;;;;;14.98;100.00;99552.52;217898;1285;139457;-89
2023/05/15 10:04:02;;;;;;;17.90;13.20;;;;;;;15.02;100.00;99545.64;217524;1282;139989;-89
2023/05/15 10:09:03;;;;;;;18.40;13.70;;;;;;;15.15;100.00;99546.14;217548;1283;139669;-87
2023/05/15 10:14:07;;;;;;;17.30;13.60;;;;;;;15.14;100.00;99541.02;218244;1282;140857;-88
2023/05/15 10:19:09;;;;;;;17.30;13.10;;;;;;;15.15;100.00;99533.39;217354;1282;139278;-87
2023/05/15 10:24:11;;;;;;;18.70;13.90;;;;;;;15.19;100.00;99531.31;218080;1284;228770;-90
2023/05/15 10:29:13;;;;;;;17.70;14.10;;;;;;;15.32;100.00;99528.82;217408;1285;139464;-88
2023/05/15 10:34:15;;;;;;;17.30;12.80;;;;;;;15.41;100.00;99524.59;217930;1282;139934;-88
2023/05/15 10:39:16;;;;;;;17.80;13.40;;;;;;;15.30;100.00;99528.09;217596;1283;139091;-90
2023/05/15 10:44:19;;;;;;;19.30;12.30;;;;;;;15.16;100.00;99522.20;218080;1284;138231;-92
2023/05/15 10:49:20;;;;;;;15.70;11.80;;;;;;;15.05;100.00;99520.63;217370;1282;139270;-92
2023/05/15 10:54:21;;;;;;;16.90;12.30;;;;;;;15.01;100.00;99514.54;217818;1283;139309;-93
2023/05/15 10:59:30;;;;;;;15.70;11.60;;;;;;;14.92;100.00;99512.84;217456;1282;139157;-91
2023/05/15 11:04:32;;;;;;;17.10;12.70;;;;;;;14.78;100.00;99508.60;218107;1283;138831;-90
2023/05/15 11:09:34;;;;;;;15.20;11.90;;;;;;;14.78;100.00;99497.61;217360;1285;139120;-92
2023/05/15 11:14:43;;;;;;;16.50;12.00;;;;;;;14.97;100.00;99493.80;218142;1285;139014;-90
2023/05/15 11:19:49;;;;;;;15.10;11.30;;;;;;;15.01;100.00;99496.95;217556;1283;139300;-91
2023/05/15 11:24:59;;;;;;;16.40;12.70;;;;;;;15.11;100.00;99487.95;218238;1283;139574;-93
2023/05/15 11:30:23;;;;;;;16.60;12.50;;;;;;;15.32;100.00;99482.89;217608;1282;139681;-91
2023/05/15 11:35:29;;;;;;;14.40;11.50;;;;;;;15.49;100.00;99474.91;218036;1283;112007;-93
2023/05/15 11:40:42;;;;;;;19.40;12.20;;;;;;;15.47;100.00;99469.09;217388;1283;139351;-92
2023/05/15 11:45:56;;;;;;;14.30;10.30;;;;;;;15.45;100.00;99462.95;218347;1283;139172;-94
2023/05/15 11:50:57;;;;;;;19.40;12.10;;;;;;;15.43;100.00;99458.73;217653;1285;139088;-93
2023/05/15 11:55:58;;;;;;;17.80;12.10;;;;;;;15.42;100.00;99460.10;217976;1283;139114;-91
2023/05/15 12:00:58;;;;;;;18.40;12.10;;;;;;;15.33;100.00;99455.15;217419;1283;139233;-91
2023/05/15 12:11:22;;;;;;;17.30;12.70;;;;;;;15.06;100.00;99449.74;216550;1286;139387;-83
2023/05/15 12:16:26;;;;;;;16.40;10.60;;;;;;;14.99;100.00;99444.20;218395;1285;139071;-83
2023/05/15 12:21:27;;;;;;;15.30;12.50;;;;;;;14.98;100.00;99441.45;217923;1285;140326;-84
2023/05/15 12:26:28;;;;;;;14.50;11.50;;;;;;;14.92;100.00;99441.17;218410;1285;139048;-85
2023/05/15 12:31:29;;;;;;;16.50;12.90;;;;;;;14.93;100.00;99435.25;217889;1288;139583;-85
2023/05/15 12:36:29;;;;;;;18.20;13.60;;;;;;;14.98;100.00;99435.45;218474;1289;140119;-86
2023/05/15 12:41:31;;;;;;;16.20;11.90;;;;;;;14.96;100.00;99427.87;218038;1286;139172;-86
2023/05/15 12:46:31;;;;;;;17.60;13.40;;;;;;;15.06;100.00;99424.02;218532;1286;138952;-86
2023/05/15 12:51:32;;;;;;;21.20;15.00;;;;;;;15.13;100.00;99417.41;217960;1285;139216;-85
2023/05/15 12:56:33;;;;;;;16.40;12.30;;;;;;;15.20;100.00;99414.10;218556;1287;139083;-86
2023/05/15 13:01:34;;;;;;;18.20;13.60;;;;;;;15.28;100.00;99411.77;217987;1287;139375;-85
2023/05/15 13:06:37;;;;;;;17.30;13.30;;;;;;;15.31;100.00;99407.24;218281;1286;139039;-86
2023/05/15 13:11:42;;;;;;;15.20;12.20;;;;;;;15.39;100.00;99399.10;218010;1286;139488;-85
2023/05/15 13:16:45;;;;;;;15.30;11.60;;;;;;;15.49;100.00;99390.73;218435;1285;139065;-84
2023/05/15 13:21:45;;;;;;;16.90;13.00;;;;;;;15.56;100.00;99388.60;217984;1284;139418;-85
2023/05/15 13:26:46;;;;;;;16.20;13.00;;;;;;;15.58;100.00;99383.64;218563;1286;139138;-85
2023/05/15 13:31:47;;;;;;;17.50;13.00;;;;;;;15.54;100.00;99382.23;217833;1286;140103;-84
2023/05/15 13:36:47;;;;;;;16.40;12.00;;;;;;;15.42;100.00;99385.63;218437;1285;139233;-84
2023/05/15 13:41:48;;;;;;;15.10;11.50;;;;;;;15.49;100.00;99383.61;218023;1285;140980;-84
2023/05/15 13:46:48;;;;;;;14.80;12.00;;;;;;;15.54;100.00;99373.27;218484;1286;139928;-84
2023/05/15 13:51:49;;;;;;;18.10;14.00;;;;;;;15.55;100.00;99369.38;217341;1286;139927;-83
2023/05/15 13:56:49;;;;;;;17.70;13.90;;;;;;;15.55;100.00;99371.52;217311;1285;139385;-84
2023/05/15 14:01:50;;;;;;;15.80;12.70;;;;;;;15.51;100.00;99368.36;217713;1286;139577;-85
2023/05/15 14:06:51;;;;;;;15.50;12.50;;;;;;;15.51;99.98;99368.20;218422;1285;139099;-84
2023/05/15 14:11:51;;;;;;;14.80;11.10;;;;;;;15.50;99.92;99371.15;218075;1285;139971;-84
2023/05/15 14:16:52;;;;;;;15.20;12.70;;;;;;;15.45;99.97;99367.64;218415;1285;138525;-85
2023/05/15 14:21:53;;;;;;;13.70;10.60;;;;;;;15.44;99.95;99362.91;217742;1286;139155;-85
2023/05/15 14:26:53;;;;;;;17.30;14.90;;;;;;;15.44;99.79;99361.01;218500;1286;138938;-85
2023/05/15 14:31:54;;;;;;;15.80;11.90;;;;;;;15.41;99.83;99365.04;217841;1285;139724;-84
2023/05/15 14:36:54;;;;;;;15.30;12.70;;;;;;;15.36;99.80;99360.84;218417;1285;139776;-85
2023/05/15 14:41:55;;;;;;;13.40;11.00;;;;;;;15.34;99.99;99367.29;217916;1285;256479;-86
2023/05/15 14:47:11;;;;;;;12.90;10.80;;;;;;;15.32;99.86;99365.99;218357;1285;138716;-88
2023/05/15 14:52:13;;;;;;;13.20;9.80;;;;;;;15.29;99.76;99363.52;217921;1286;139657;-87
2023/05/15 14:57:18;;;;;;;14.40;11.70;;;;;;;15.26;99.03;99361.44;218388;1286;138742;-87
2023/05/15 15:02:20;;;;;;;12.70;10.30;;;;;;;15.24;99.34;99363.87;217931;1285;140161;-88
2023/05/15 15:07:20;;;;;;;13.00;10.10;;;;;;;15.22;99.50;99361.80;218442;1285;139009;-87
2023/05/15 15:12:21;;;;;;;13.40;10.60;;;;;;;15.17;99.08;99363.41;217935;1285;139379;-88
2023/05/15 15:17:22;;;;;;;16.00;11.40;;;;;;;15.13;98.14;99365.41;218624;1285;96266;-84
2023/05/15 15:22:23;;;;;;;13.50;10.50;;;;;;;15.10;98.08;99363.98;217999;1286;139407;-87
2023/05/15 15:27:24;;;;;;;16.90;13.60;;;;;;;15.08;98.38;99363.31;218476;1285;138948;-89
2023/05/15 15:32:24;;;;;;;19.10;13.90;;;;;;;15.04;99.11;99364.61;217974;1285;139741;-86
2023/05/15 15:37:28;;;;;;;18.80;15.60;;;;;;;15.01;98.74;99363.49;217271;1286;139792;-86
2023/05/15 15:42:29;;;;;;;17.80;14.80;;;;;;;14.99;99.22;99362.45;217201;1285;140027;-87
2023/05/15 15:47:30;;;;;;;27.70;23.70;;;;;;;14.96;98.98;99360.84;218550;1286;96649;-87
2023/05/15 15:52:31;;;;;;;20.50;16.20;;;;;;;14.93;99.58;99361.99;217996;1286;140067;-88
2023/05/15 15:57:31;;;;;;;22.30;18.50;;;;;;;14.92;99.18;99358.56;218561;1286;138720;-87
2023/05/15 16:02:32;;;;;;;24.00;15.90;;;;;;;14.88;99.91;99354.46;217790;1287;140848;-87
2023/05/15 16:07:33;;;;;;;40.80;29.00;;;;;;;14.86;99.85;99351.49;218534;1287;140044;-88
2023/05/15 16:12:33;;;;;;;21.80;16.90;;;;;;;14.85;99.94;99348.12;217782;1285;139310;-88
2023/05/15 16:17:37;;;;;;;21.90;17.20;;;;;;;14.84;99.88;99344.73;218589;1285;96632;-88
2023/05/15 16:22:40;;;;;;;17.50;14.70;;;;;;;14.84;100.00;99347.11;217910;1286;139158;-87
2023/05/15 16:27:40;;;;;;;18.00;14.50;;;;;;;14.82;100.00;99347.72;218431;1285;138930;-89
2023/05/15 16:32:41;;;;;;;16.20;13.80;;;;;;;14.78;100.00;99348.69;217908;1287;140441;-87
2023/05/15 16:37:41;;;;;;;17.90;14.00;;;;;;;14.75;100.00;99340.13;218484;1285;139269;-89
2023/05/15 16:42:42;;;;;;;17.30;13.30;;;;;;;14.75;100.00;99340.90;217740;1285;139413;-87
2023/05/15 16:47:42;;;;;;;18.30;14.40;;;;;;;14.74;100.00;99347.02;218516;1285;96421;-88
2023/05/15 16:52:46;;;;;;;16.40;13.40;;;;;;;14.75;100.00;99347.06;217872;1285;139657;-89
2023/05/15 16:57:46;;;;;;;21.00;16.30;;;;;;;14.76;100.00;99352.52;218396;1285;139534;-87
2023/05/15 17:02:48;;;;;;;26.00;17.10;;;;;;;14.73;100.00;99353.86;217979;1285;139497;-91
2023/05/15 17:07:48;;;;;;;22.40;16.60;;;;;;;14.73;100.00;99357.11;218394;1285;139249;-90
2023/05/15 17:12:49;;;;;;;20.50;15.10;;;;;;;14.73;100.00;99359.48;217851;1286;139531;-88
2023/05/15 17:17:50;;;;;;;17.20;14.00;;;;;;;14.70;100.00;99365.39;218480;1285;97782;-88
2023/05/15 17:22:51;;;;;;;17.90;13.40;;;;;;;14.67;100.00;99366.59;216810;1285;139913;-89
2023/05/15 17:27:51;;;;;;;15.20;11.70;;;;;;;14.61;100.00;99370.27;217853;1284;138889;-90
2023/05/15 17:32:52;;;;;;;18.70;12.00;;;;;;;14.57;100.00;99376.68;217660;1285;139569;-92
2023/05/15 17:37:53;;;;;;;14.90;10.70;;;;;;;14.51;100.00;99380.67;218302;1285;139963;-88
2023/05/15 17:42:53;;;;;;;15.80;11.20;;;;;;;14.47;100.00;99385.91;217733;1286;139163;-89
2023/05/15 17:48:01;;;;;;;22.70;17.10;;;;;;;14.38;100.00;99388.48;218397;1287;96611;-89
2023/05/15 17:53:01;;;;;;;14.10;10.60;;;;;;;14.32;100.00;99388.05;217987;1286;139026;-88
2023/05/15 17:58:02;;;;;;;14.20;10.30;;;;;;;14.25;100.00;99399.83;218396;1286;138951;-88
2023/05/15 18:03:02;;;;;;;13.70;9.70;;;;;;;14.15;100.00;99401.58;217876;1285;139451;-89
2023/05/15 18:08:03;;;;;;;13.40;9.40;;;;;;;14.11;100.00;99405.61;218251;1285;139049;-88
2023/05/15 18:13:04;;;;;;;14.60;9.40;;;;;;;14.07;100.00;99409.80;217981;1286;138973;-88
2023/05/15 18:18:05;;;;;;;12.70;8.90;;;;;;;14.01;100.00;99417.65;218353;1287;142291;-89
2023/05/15 18:23:05;;;;;;;13.00;8.80;;;;;;;13.93;100.00;99420.57;218039;1285;138784;-88
2023/05/15 18:28:06;;;;;;;12.30;9.30;;;;;;;13.88;100.00;99427.31;218483;1285;138746;-88
2023/05/15 18:33:07;;;;;;;14.80;10.30;;;;;;;13.83;100.00;99428.10;217938;1285;140854;-89
2023/05/15 18:38:07;;;;;;;15.40;11.10;;;;;;;13.79;100.00;99436.56;218388;1285;139678;-88
2023/05/15 18:43:08;;;;;;;15.60;10.50;;;;;;;13.73;100.00;99447.33;217987;1285;139186;-88
2023/05/15 18:48:09;;;;;;;13.00;10.30;;;;;;;13.65;100.00;99452.20;218530;1285;140649;-88
2023/05/15 18:53:09;;;;;;;17.40;11.70;;;;;;;13.58;100.00;99457.77;218059;1285;139187;-90
2023/05/15 18:58:10;;;;;;;14.60;11.00;;;;;;;13.50;100.00;99465.89;218300;1285;139602;-93
2023/05/15 19:03:11;;;;;;;15.10;11.20;;;;;;;13.41;100.00;99472.36;217670;1285;140218;-90
2023/05/15 19:08:12;;;;;;;16.00;10.50;;;;;;;13.31;100.00;99473.52;216953;1287;139237;-89
2023/05/15 19:13:12;;;;;;;16.20;11.50;;;;;;;13.25;100.00;99480.17;217733;1287;140220;-89
2023/05/15 19:18:13;;;;;;;16.10;11.90;;;;;;;13.22;100.00;99484.08;218135;1285;139060;-90
2023/05/15 19:23:15;;;;;;;20.20;14.10;;;;;;;13.19;100.00;99481.52;217793;1285;139385;-90
2023/05/15 19:28:16;;;;;;;16.70;12.20;;;;;;;13.17;100.00;99485.66;218379;1286;139001;-90
2023/05/15 19:33:17;;;;;;;14.70;11.20;;;;;;;13.12;100.00;99486.68;217954;1285;140362;-93
2023/05/15 19:38:18;;;;;;;13.70;10.30;;;;;;;13.08;100.00;99488.71;218276;1285;139235;-89
2023/05/15 19:43:18;;;;;;;16.30;11.60;;;;;;;13.04;100.00;99497.69;218065;1285;139385;-91
2023/05/15 19:48:19;;;;;;;13.40;9.80;;;;;;;12.99;100.00;99502.80;218541;1285;139730;-90
2023/05/15 19:53:19;;;;;;;15.10;10.10;;;;;;;12.94;100.00;99501.89;218116;1287;139719;-89
2023/05/15 19:58:20;;;;;;;13.70;9.70;;;;;;;12.89;100.00;99503.14;218521;1289;139459;-91
2023/05/15 20:03:21;;;;;;;13.30;9.40;;;;;;;12.88;100.00;99509.87;218051;1285;139352;-90
2023/05/15 20:08:21;;;;;;;15.30;9.80;;;;;;;12.84;100.00;99517.40;218478;1285;139199;-92
2023/05/15 20:13:22;;;;;;;12.30;8.90;;;;;;;12.79;100.00;99512.96;218016;1285;139178;-90
2023/05/15 20:18:24;;;;;;;16.00;9.40;;;;;;;12.76;100.00;99513.55;218648;1285;139355;-91
2023/05/15 20:23:25;;;;;;;14.10;9.40;;;;;;;12.73;100.00;99519.91;217972;1285;139491;-92
2023/05/15 20:28:27;;;;;;;13.50;9.40;;;;;;;12.69;100.00;99515.85;218471;1285;140690;-90
2023/05/15 20:33:27;;;;;;;13.40;9.10;;;;;;;12.65;100.00;99517.39;218091;1285;139281;-92
2023/05/15 20:38:28;;;;;;;14.80;9.20;;;;;;;12.63;100.00;99520.27;218574;1285;139496;-92
2023/05/15 20:43:28;;;;;;;13.20;9.40;;;;;;;12.60;100.00;99519.12;217760;1286;139687;-90
2023/05/15 20:48:29;;;;;;;15.60;10.10;;;;;;;12.56;100.00;99515.53;217922;1285;138993;-91
2023/05/15 20:53:29;;;;;;;14.00;10.20;;;;;;;12.51;100.00;99513.30;216768;1285;139451;-92
2023/05/15 20:58:30;;;;;;;13.80;9.50;;;;;;;12.48;100.00;99518.38;218451;1285;139354;-90
2023/05/15 21:03:31;;;;;;;14.00;9.80;;;;;;;12.44;100.00;99526.07;217915;1285;139269;-91
2023/05/15 21:08:32;;;;;;;13.60;8.40;;;;;;;12.42;100.00;99529.33;218641;1285;139208;-92
2023/05/15 21:13:32;;;;;;;15.80;8.70;;;;;;;12.40;100.00;99533.30;218137;1285;139116;-92
2023/05/15 21:18:33;;;;;;;12.80;8.90;;;;;;;12.37;100.00;99533.33;218413;1285;139020;-91
2023/05/15 21:23:35;;;;;;;13.70;9.00;;;;;;;12.35;100.00;99532.56;217995;1285;139115;-91
2023/05/15 21:28:36;;;;;;;14.90;8.70;;;;;;;12.34;100.00;99529.50;218716;1285;138664;-92
2023/05/15 21:33:37;;;;;;;13.90;8.80;;;;;;;12.32;100.00;99532.05;217830;1285;139150;-90
2023/05/15 21:38:37;;;;;;;11.50;7.80;;;;;;;12.31;100.00;99529.85;218336;1285;139365;-91
2023/05/15 21:43:38;;;;;;;11.10;8.80;;;;;;;12.26;100.00;99528.48;217836;1285;138938;-89
2023/05/15 21:48:38;;;;;;;11.80;7.70;;;;;;;12.21;100.00;99529.55;218409;1285;139204;-92
2023/05/15 21:53:39;;;;;;;12.10;8.00;;;;;;;12.17;100.00;99528.17;218122;1289;139331;-91
2023/05/15 21:58:39;;;;;;;15.60;9.00;;;;;;;12.15;100.00;99533.64;218614;1285;138656;-90
2023/05/15 22:03:40;;;;;;;11.80;7.50;;;;;;;12.10;100.00;99537.00;218081;1285;139056;-90
2023/05/15 22:08:40;;;;;;;12.30;8.70;;;;;;;12.06;100.00;99537.74;218551;1285;139043;-90
2023/05/15 22:13:41;;;;;;;13.70;9.10;;;;;;;12.03;100.00;99538.71;217971;1285;140031;-88
2023/05/15 22:18:43;;;;;;;13.50;9.60;;;;;;;12.01;100.00;99542.99;218624;1285;138912;-91
2023/05/15 22:23:44;;;;;;;14.40;9.90;;;;;;;11.98;100.00;99543.41;218179;1285;138940;-91
2023/05/15 22:28:46;;;;;;;16.20;10.00;;;;;;;11.96;100.00;99542.00;218682;1285;139534;-90
2023/05/15 22:33:46;;;;;;;14.40;9.40;;;;;;;11.96;100.00;99542.16;216954;1285;139452;-90
2023/05/15 22:38:47;;;;;;;16.00;10.70;;;;;;;11.97;100.00;99542.46;217896;1285;138935;-89